No particular awareness of the weather is required.    There are no Weather-warnings


Meteo18 Weather Cam more information Meteo18 Weather Cam


Thunder radar more information blitzortung!


Rain radar more information rain snow radar


Visit our other weather sites:

Template documentation
and downloads

And another site



Weather Underground History page Text

Daily Summary for June 24, 2017 Units:  English    Metric   Both
« Previous Day
Next Day »
Daily Weekly Monthly Yearly Custom
  High: Low: Average:
Temperature: TemperatureC °F 15.1 °F 20 °F
Dew Point: DewpointC °F 11.9 °F 13.3 °F
Humidity: Humidity % 45 % 67 %
Wind Speed: WindSpeedKMH mph 0.0 mph 4.6 mph
Wind Gust: WindSpeedGustKMH mph - -
Wind:- - West
Pressure: PressurehPa in 1018.2 in -
Precipitation: 0.0 in    
Historical Graphs
 
 
Tabular Data for June 24, 2017
Time Temperature Dew Point Pressure Wind Wind Speed Wind Gust Humidity Rainfall Rate (Hourly)
TemperatureC °F DewpointC °F PressurehPa in Calm     Humidity % HourlyPrecipMM in
00:02 18.8 °F 15.5 °F 1021.9 in Calm     81 % 0.0 in
00:07 18.7 °F 15.4 °F 1021.9 in Calm     81 % 0.0 in
00:12 18.5 °F 15.4 °F 1021.9 in Calm     82 % 0.0 in
00:17 18.2 °F 15.3 °F 1021.9 in Calm     83 % 0.0 in
00:22 18.1 °F 15.4 °F 1021.9 in Calm     84 % 0.0 in
00:27 18.1 °F 15.5 °F 1021.9 in Calm     85 % 0.0 in
00:32 17.7 °F 15.0 °F 1021.9 in Calm     84 % 0.0 in
00:37 17.6 °F 15.2 °F 1021.9 in Calm     86 % 0.0 in
00:42 17.6 °F 15.2 °F 1021.6 in Calm     86 % 0.0 in
00:52 17.7 °F 15.3 °F 1021.6 in Calm     86 % 0.0 in
01:02 17.5 °F 15.3 °F 1021.6 in Calm     87 % 0.0 in
01:12 17.2 °F 14.8 °F 1021.6 in Calm     86 % 0.0 in
01:17 17.1 °F 14.7 °F 1021.6 in Calm   6.4 mph 86 % 0.0 in
01:22 16.9 °F 14.5 °F 1021.6 in Calm   6.4 mph 86 % 0.0 in
01:32 16.9 °F 14.7 °F 1021.6 in Calm   1.6 mph 87 % 0.0 in
01:37 16.7 °F 14.5 °F 1021.6 in Calm   1.6 mph 87 % 0.0 in
01:42 16.6 °F 14.4 °F 1021.6 in SSE 1.6 mph 1.6 mph 87 % 0.0 in
01:52 16.6 °F 14.6 °F 1021.6 in NNE 3.2 mph 8.0 mph 88 % 0.0 in
01:57 16.3 °F 14.1 °F 1021.6 in Calm   8.0 mph 87 % 0.0 in
02:02 16.2 °F 14.2 °F 1021.6 in Calm   8.0 mph 88 % 0.0 in
02:12 16.2 °F 14.4 °F 1021.6 in Calm   6.4 mph 89 % 0.0 in
02:17 16.1 °F 14.1 °F 1021.6 in Calm     88 % 0.0 in
02:22 15.9 °F 13.9 °F 1021.6 in Calm     88 % 0.0 in
02:27 15.8 °F 14.0 °F 1021.6 in WNW 1.6 mph   89 % 0.0 in
02:32 15.7 °F 13.9 °F 1021.6 in WNW 1.6 mph   89 % 0.0 in
02:37 15.6 °F 14.0 °F 1021.6 in Calm   3.2 mph 90 % 0.0 in
02:42 15.6 °F 14.0 °F 1021.6 in WNW 1.6 mph 3.2 mph 90 % 0.0 in
02:47 15.6 °F 13.8 °F 1021.6 in WNW 1.6 mph 3.2 mph 89 % 0.0 in
02:52 15.7 °F 13.7 °F 1021.6 in NNW 1.6 mph 3.2 mph 88 % 0.0 in
02:57 16.1 °F 13.6 °F 1021.6 in NNW 1.6 mph 3.2 mph 85 % 0.0 in
03:02 16.4 °F 13.3 °F 1021.6 in NW 1.6 mph 3.2 mph 82 % 0.0 in
03:07 16.7 °F 13.2 °F 1021.6 in Calm   3.2 mph 80 % 0.0 in
03:12 16.6 °F 12.9 °F 1021.6 in WNW 1.6 mph 3.2 mph 79 % 0.0 in
03:17 16.7 °F 13.0 °F 1021.6 in NNW 1.6 mph 4.8 mph 79 % 0.0 in
03:22 16.6 °F 12.9 °F 1021.6 in Calm   4.8 mph 79 % 0.0 in
03:32 15.9 °F 12.6 °F 1021.6 in Calm   4.8 mph 81 % 0.0 in
03:37 15.7 °F 13.0 °F 1021.6 in Calm   1.6 mph 84 % 0.0 in
03:42 15.5 °F 13.0 °F 1021.6 in WNW 1.6 mph 1.6 mph 85 % 0.0 in
03:52 15.5 °F 12.8 °F 1021.6 in NNW 1.6 mph 1.6 mph 84 % 0.0 in
03:57 15.6 °F 12.7 °F 1021.6 in NW 1.6 mph 3.2 mph 83 % 0.0 in
04:02 15.7 °F 12.8 °F 1021.6 in Calm   3.2 mph 83 % 0.0 in
04:07 15.6 °F 12.7 °F 1021.6 in NW 1.6 mph 4.8 mph 83 % 0.0 in
04:12 15.5 °F 12.8 °F 1021.6 in NW 1.6 mph 4.8 mph 84 % 0.0 in
04:17 15.4 °F 12.7 °F 1021.6 in NW 1.6 mph 6.4 mph 84 % 0.0 in
04:22 15.3 °F 12.6 °F 1021.6 in Calm   6.4 mph 84 % 0.0 in
04:32 15.2 °F 12.7 °F 1021.6 in Calm   6.4 mph 85 % 0.0 in
04:37 15.2 °F 12.7 °F 1021.6 in Calm     85 % 0.0 in
04:42 15.2 °F 12.7 °F 1021.6 in Calm     85 % 0.0 in
04:47 15.3 °F 12.8 °F 1021.6 in Calm     85 % 0.0 in
04:52 15.3 °F 12.8 °F 1021.6 in Calm     85 % 0.0 in
05:02 15.4 °F 12.9 °F 1021.6 in Calm     85 % 0.0 in
05:12 15.3 °F 12.8 °F 1021.6 in Calm     85 % 0.0 in
05:17 15.3 °F 12.8 °F 1021.6 in Calm     85 % 0.0 in
05:22 15.2 °F 12.7 °F 1021.6 in Calm     85 % 0.0 in
05:32 15.3 °F 12.8 °F 1021.9 in Calm     85 % 0.0 in
05:42 15.5 °F 13.0 °F 1021.9 in Calm     85 % 0.0 in
05:47 15.5 °F 13.0 °F 1021.9 in Calm     85 % 0.0 in
05:57 15.3 °F 13.0 °F 1021.9 in Calm     86 % 0.0 in
06:02 15.3 °F 13.0 °F 1021.9 in Calm     86 % 0.0 in
06:12 15.2 °F 13.0 °F 1021.9 in Calm     87 % 0.0 in
06:17 15.1 °F 13.0 °F 1022.2 in Calm     87 % 0.0 in
06:22 15.1 °F 13.1 °F 1022.2 in Calm     88 % 0.0 in
06:32 15.2 °F 13.2 °F 1022.2 in Calm     88 % 0.0 in
06:42 15.2 °F 13.2 °F 1022.2 in Calm     88 % 0.0 in
06:47 15.3 °F 13.3 °F 1022.2 in Calm     88 % 0.0 in
06:52 15.3 °F 13.3 °F 1022.2 in Calm     88 % 0.0 in
07:02 15.5 °F 13.5 °F 1022.2 in Calm     88 % 0.0 in
07:12 15.7 °F 13.7 °F 1022.2 in Calm     88 % 0.0 in
07:17 15.7 °F 13.7 °F 1022.2 in Calm     88 % 0.0 in
07:22 15.7 °F 13.7 °F 1022.2 in Calm     88 % 0.0 in
07:32 15.9 °F 13.7 °F 1022.2 in Calm     87 % 0.0 in
07:42 16.0 °F 13.7 °F 1022.2 in Calm     86 % 0.0 in
07:52 16.2 °F 13.9 °F 1022.2 in Calm     86 % 0.0 in
07:57 16.2 °F 13.9 °F 1022.2 in Calm     86 % 0.0 in
08:02 16.3 °F 13.8 °F 1022.2 in Calm     85 % 0.0 in
08:12 16.5 °F 13.8 °F 1022.2 in Calm     84 % 0.0 in
08:17 16.7 °F 14.0 °F 1021.9 in Calm     84 % 0.0 in
08:22 16.8 °F 13.9 °F 1022.2 in Calm     83 % 0.0 in
08:32 17.1 °F 14.0 °F 1022.2 in Calm     82 % 0.0 in
08:42 17.4 °F 14.3 °F 1022.2 in Calm     82 % 0.0 in
08:47 17.4 °F 14.3 °F 1022.2 in Calm   3.2 mph 82 % 0.0 in
08:52 17.5 °F 14.4 °F 1021.9 in East 1.6 mph 3.2 mph 82 % 0.0 in
08:57 17.6 °F 14.5 °F 1021.9 in Calm   4.8 mph 82 % 0.0 in
09:02 18.2 °F 14.9 °F 1021.9 in Calm   4.8 mph 81 % 0.0 in
09:07 18.8 °F 14.9 °F 1021.9 in SE 1.6 mph 4.8 mph 78 % 0.0 in
09:12 19.0 °F 14.7 °F 1021.9 in Calm   4.8 mph 76 % 0.0 in
09:17 19.2 °F 14.9 °F 1021.9 in Calm   4.8 mph 76 % 0.0 in
09:22 19.6 °F 14.8 °F 1021.9 in SSE 3.2 mph 4.8 mph 74 % 0.0 in
09:32 19.4 °F 15.1 °F 1021.9 in South 3.2 mph 9.7 mph 76 % 0.0 in
09:42 19.2 °F 14.5 °F 1021.9 in SSW 6.4 mph 9.7 mph 74 % 0.0 in
09:47 19.2 °F 14.7 °F 1021.9 in South 4.8 mph 14.5 mph 75 % 0.0 in
09:52 19.4 °F 14.9 °F 1021.9 in SSW 8.0 mph 14.5 mph 75 % 0.0 in
10:02 19.2 °F 15.1 °F 1021.9 in WSW 4.8 mph 19.3 mph 77 % 0.0 in
10:12 19.2 °F 14.9 °F 1021.9 in SW 11.3 mph 19.3 mph 76 % 0.0 in
10:17 19.3 °F 14.8 °F 1021.9 in SW 12.9 mph 16.1 mph 75 % 0.0 in
10:22 19.3 °F 14.3 °F 1021.9 in SW 12.9 mph 16.1 mph 73 % 0.0 in
10:32 19.7 °F 14.5 °F 1021.6 in WSW 8.0 mph 19.3 mph 72 % 0.0 in
10:42 19.8 °F 14.4 °F 1021.6 in WSW 17.7 mph 20.9 mph 71 % 0.0 in
10:47 19.6 °F 14.2 °F 1021.6 in SW 9.7 mph 20.9 mph 71 % 0.0 in
10:52 19.5 °F 14.3 °F 1021.6 in West 9.7 mph 20.9 mph 72 % 0.0 in
11:02 19.6 °F 14.0 °F 1021.6 in WSW 16.1 mph 20.9 mph 70 % 0.0 in
11:12 19.9 °F 14.3 °F 1021.6 in West 17.7 mph 20.9 mph 70 % 0.0 in
11:17 20.1 °F 14.2 °F 1021.6 in West 3.2 mph 19.3 mph 69 % 0.0 in
11:22 20.4 °F 14.1 °F 1021.6 in SW 11.3 mph 19.3 mph 67 % 0.0 in
11:32 20.6 °F 14.0 °F 1021.6 in SSW 8.0 mph 24.1 mph 66 % 0.0 in
11:42 21.1 °F 14.5 °F 1021.6 in SW 19.3 mph 24.1 mph 66 % 0.0 in
11:52 20.8 °F 13.3 °F 1021.6 in WSW 8.0 mph 24.1 mph 62 % 0.0 in
12:02 20.6 °F 13.3 °F 1021.6 in West 3.2 mph 24.1 mph 63 % 0.0 in
12:07 21.0 °F 13.7 °F 1021.2 in South 11.3 mph 20.9 mph 63 % 0.0 in
12:12 21.2 °F 13.9 °F 1021.2 in South 9.7 mph 20.9 mph 63 % 0.0 in
12:17 21.4 °F 13.1 °F 1021.2 in WNW 9.7 mph 22.5 mph 59 % 0.0 in
12:22 21.6 °F 13.5 °F 1021.2 in WSW 1.6 mph 22.5 mph 60 % 0.0 in
12:32 21.8 °F 13.2 °F 1021.2 in SW 16.1 mph 20.9 mph 58 % 0.0 in
12:42 21.8 °F 12.6 °F 1020.9 in WNW 9.7 mph 20.9 mph 56 % 0.0 in
12:52 22.2 °F 13.3 °F 1020.9 in WSW 17.7 mph 22.5 mph 57 % 0.0 in
12:57 22.2 °F 13.0 °F 1020.9 in WSW 6.4 mph 22.5 mph 56 % 0.0 in
13:02 22.4 °F 12.9 °F 1020.5 in WSW 20.9 mph 20.9 mph 55 % 0.0 in
13:07 22.3 °F 12.8 °F 1020.9 in West 9.7 mph 20.9 mph 55 % 0.0 in
13:12 22.6 °F 13.1 °F 1020.5 in West 8.0 mph 20.9 mph 55 % 0.0 in
13:17 22.6 °F 12.8 °F 1020.5 in WNW 4.8 mph 20.9 mph 54 % 0.0 in
13:22 22.6 °F 12.8 °F 1020.5 in WNW 6.4 mph 19.3 mph 54 % 0.0 in
13:32 22.6 °F 12.5 °F 1020.5 in WSW 12.9 mph 20.9 mph 53 % 0.0 in
13:37 22.8 °F 13.0 °F 1020.5 in WNW 9.7 mph 20.9 mph 54 % 0.0 in
13:42 22.8 °F 13.0 °F 1020.5 in SW 17.7 mph 19.3 mph 54 % 0.0 in
13:52 23.1 °F 13.0 °F 1020.5 in WSW 9.7 mph 20.9 mph 53 % 0.0 in
13:57 23.4 °F 13.3 °F 1020.5 in WSW 8.0 mph 20.9 mph 53 % 0.0 in
14:02 23.3 °F 12.9 °F 1020.5 in West 16.1 mph 20.9 mph 52 % 0.0 in
14:07 23.1 °F 13.0 °F 1020.5 in SW 1.6 mph 25.7 mph 53 % 0.0 in
14:12 23.4 °F 13.0 °F 1020.5 in WSW 12.9 mph 25.7 mph 52 % 0.0 in
14:17 23.2 °F 12.8 °F 1020.2 in West 14.5 mph 22.5 mph 52 % 0.0 in
14:22 23.2 °F 13.4 °F 1020.5 in West 8.0 mph 22.5 mph 54 % 0.0 in
14:32 23.6 °F 13.5 °F 1020.2 in West 12.9 mph 22.5 mph 53 % 0.0 in
14:37 23.7 °F 13.0 °F 1020.2 in West 12.9 mph 19.3 mph 51 % 0.0 in
14:42 23.5 °F 13.1 °F 1020.2 in NW 14.5 mph 19.3 mph 52 % 0.0 in
14:47 23.5 °F 13.4 °F 1020.2 in NW 11.3 mph 27.4 mph 53 % 0.0 in
14:52 23.8 °F 13.6 °F 1020.2 in NW 3.2 mph 27.4 mph 53 % 0.0 in
15:02 23.6 °F 13.2 °F 1020.2 in WNW 12.9 mph 24.1 mph 52 % 0.0 in
15:12 23.7 °F 13.3 °F 1019.9 in WNW 6.4 mph 24.1 mph 52 % 0.0 in
15:17 23.7 °F 13.0 °F 1019.9 in WSW 6.4 mph 22.5 mph 51 % 0.0 in
15:22 23.4 °F 13.3 °F 1019.9 in West 12.9 mph 22.5 mph 53 % 0.0 in
15:27 23.4 °F 13.3 °F 1019.9 in SW 1.6 mph 22.5 mph 53 % 0.0 in
15:32 24.2 °F 13.1 °F 1019.9 in West 6.4 mph 22.5 mph 50 % 0.0 in
15:37 23.9 °F 12.2 °F 1019.9 in West 8.0 mph 17.7 mph 48 % 0.0 in
15:42 23.8 °F 12.8 °F 1019.9 in WSW 11.3 mph 17.7 mph 50 % 0.0 in
15:52 24.1 °F 12.7 °F 1019.9 in West 12.9 mph 24.1 mph 49 % 0.0 in
15:57 24.4 °F 13.0 °F 1019.5 in West 1.6 mph 24.1 mph 49 % 0.0 in
16:02 24.6 °F 13.2 °F 1019.9 in WNW 9.7 mph 24.1 mph 49 % 0.0 in
16:07 24.4 °F 13.0 °F 1019.9 in West 11.3 mph 24.1 mph 49 % 0.0 in
16:12 24.2 °F 13.1 °F 1019.9 in NNW 9.7 mph 24.1 mph 50 % 0.0 in
16:17 24.0 °F 13.5 °F 1019.5 in WSW 8.0 mph 24.1 mph 52 % 0.0 in
16:22 24.1 °F 13.3 °F 1019.5 in WSW 14.5 mph 24.1 mph 51 % 0.0 in
16:27 24.0 °F 13.5 °F 1019.5 in West 3.2 mph 20.9 mph 52 % 0.0 in
16:32 23.9 °F 13.1 °F 1019.2 in West 3.2 mph 20.9 mph 51 % 0.0 in
16:37 23.8 °F 13.4 °F 1019.5 in WNW 1.6 mph 20.9 mph 52 % 0.0 in
16:42 24.3 °F 12.9 °F 1019.2 in West 11.3 mph 20.9 mph 49 % 0.0 in
16:47 24.4 °F 13.0 °F 1019.2 in WSW 16.1 mph 19.3 mph 49 % 0.0 in
16:52 24.2 °F 13.4 °F 1019.2 in WNW 9.7 mph 19.3 mph 51 % 0.0 in
16:57 24.3 °F 13.2 °F 1019.2 in WNW 14.5 mph 19.3 mph 50 % 0.0 in
17:02 24.3 °F 13.2 °F 1019.2 in WNW 6.4 mph 19.3 mph 50 % 0.0 in
17:12 24.6 °F 12.5 °F 1018.8 in West 8.0 mph 22.5 mph 47 % 0.0 in
17:17 24.6 °F 13.2 °F 1019.2 in WNW 17.7 mph 20.9 mph 49 % 0.0 in
17:22 24.4 °F 13.0 °F 1019.2 in WNW 11.3 mph 20.9 mph 49 % 0.0 in
17:32 24.2 °F 12.8 °F 1019.2 in WNW 4.8 mph 19.3 mph 49 % 0.0 in
17:37 24.2 °F 12.5 °F 1019.2 in West 8.0 mph 19.3 mph 48 % 0.0 in
17:42 24.2 °F 12.5 °F 1018.8 in WNW 12.9 mph 19.3 mph 48 % 0.0 in
17:47 24.2 °F 12.5 °F 1019.2 in NW 9.7 mph 20.9 mph 48 % 0.0 in
17:52 24.3 °F 12.9 °F 1018.8 in WNW 11.3 mph 20.9 mph 49 % 0.0 in
17:57 24.2 °F 12.5 °F 1018.8 in WNW 8.0 mph 22.5 mph 48 % 0.0 in
18:02 24.3 °F 12.3 °F 1018.8 in West 11.3 mph 22.5 mph 47 % 0.0 in
18:12 24.7 °F 12.6 °F 1018.8 in WNW 11.3 mph 22.5 mph 47 % 0.0 in
18:17 24.7 °F 12.3 °F 1018.8 in WNW 8.0 mph 19.3 mph 46 % 0.0 in
18:22 24.9 °F 12.5 °F 1018.8 in WNW 3.2 mph 19.3 mph 46 % 0.0 in
18:27 24.9 °F 12.5 °F 1018.5 in WNW 9.7 mph 19.3 mph 46 % 0.0 in
18:32 24.8 °F 12.4 °F 1018.5 in West 9.7 mph 17.7 mph 46 % 0.0 in
18:42 25.1 °F 13.0 °F 1018.5 in WSW 6.4 mph 16.1 mph 47 % 0.0 in
18:52 24.9 °F 12.5 °F 1018.5 in WSW 3.2 mph 17.7 mph 46 % 0.0 in
18:57 25.0 °F 12.2 °F 1018.2 in West 6.4 mph 17.7 mph 45 % 0.0 in
19:02 24.9 °F 12.5 °F 1018.5 in WNW 8.0 mph 17.7 mph 46 % 0.0 in
19:07 24.8 °F 12.4 °F 1018.5 in West 11.3 mph 20.9 mph 46 % 0.0 in
19:12 24.6 °F 12.2 °F 1018.5 in West 12.9 mph 20.9 mph 46 % 0.0 in
19:17 24.9 °F 12.1 °F 1018.5 in WNW 6.4 mph 19.3 mph 45 % 0.0 in
19:22 24.9 °F 12.5 °F 1018.5 in West 11.3 mph 19.3 mph 46 % 0.0 in
19:27 25.0 °F 12.2 °F 1018.5 in West 4.8 mph 19.3 mph 45 % 0.0 in
19:32 24.8 °F 12.4 °F 1018.2 in West 3.2 mph 19.3 mph 46 % 0.0 in
19:37 24.7 °F 12.0 °F 1018.2 in WNW 4.8 mph 19.3 mph 45 % 0.0 in
19:42 24.6 °F 12.2 °F 1018.2 in NW 3.2 mph 19.3 mph 46 % 0.0 in
19:47 24.4 °F 12.0 °F 1018.2 in WNW 8.0 mph 19.3 mph 46 % 0.0 in
19:52 24.3 °F 11.9 °F 1018.2 in WNW 19.3 mph 19.3 mph 46 % 0.0 in
20:02 24.1 °F 12.1 °F 1018.5 in WNW 9.7 mph 24.1 mph 47 % 0.0 in
20:07 23.9 °F 11.9 °F 1018.2 in West 9.7 mph 24.1 mph 47 % 0.0 in
20:12 23.7 °F 12.0 °F 1018.5 in NW 4.8 mph 24.1 mph 48 % 0.0 in
20:17 23.6 °F 11.9 °F 1018.2 in West 4.8 mph 16.1 mph 48 % 0.0 in
20:22 23.6 °F 12.3 °F 1018.2 in WNW 8.0 mph 16.1 mph 49 % 0.0 in
20:27 23.4 °F 12.1 °F 1018.2 in West 3.2 mph 11.3 mph 49 % 0.0 in
20:32 23.3 °F 12.3 °F 1018.2 in Calm   11.3 mph 50 % 0.0 in
20:42 23.0 °F 12.3 °F 1018.5 in WNW 3.2 mph 11.3 mph 51 % 0.0 in
20:52 22.8 °F 12.4 °F 1018.5 in Calm   11.3 mph 52 % 0.0 in
20:57 22.8 °F 12.7 °F 1018.5 in West 3.2 mph 8.0 mph 53 % 0.0 in
21:02 22.7 °F 12.6 °F 1018.5 in WNW 3.2 mph 8.0 mph 53 % 0.0 in
21:07 22.7 °F 12.6 °F 1018.5 in Calm   6.4 mph 53 % 0.0 in
21:12 22.6 °F 12.8 °F 1018.5 in WNW 1.6 mph 6.4 mph 54 % 0.0 in
21:17 22.6 °F 12.8 °F 1018.5 in Calm   4.8 mph 54 % 0.0 in
21:22 22.7 °F 12.9 °F 1018.5 in West 3.2 mph 4.8 mph 54 % 0.0 in
21:27 22.6 °F 12.8 °F 1018.5 in Calm   4.8 mph 54 % 0.0 in
21:32 22.6 °F 12.8 °F 1018.5 in Calm   4.8 mph 54 % 0.0 in
21:42 22.2 °F 13.0 °F 1018.5 in West 1.6 mph 3.2 mph 56 % 0.0 in
21:47 22.0 °F 13.1 °F 1018.5 in Calm   1.6 mph 57 % 0.0 in
21:52 21.8 °F 13.2 °F 1018.5 in West 1.6 mph 1.6 mph 58 % 0.0 in
21:57 21.6 °F 13.0 °F 1018.5 in Calm   1.6 mph 58 % 0.0 in
22:02 21.3 °F 13.0 °F 1018.5 in West 1.6 mph 1.6 mph 59 % 0.0 in
22:07 21.1 °F 13.0 °F 1018.5 in Calm   1.6 mph 60 % 0.0 in
22:12 20.9 °F 13.1 °F 1018.5 in Calm   1.6 mph 61 % 0.0 in
22:17 20.8 °F 13.3 °F 1018.8 in Calm   1.6 mph 62 % 0.0 in
22:22 20.5 °F 13.2 °F 1018.8 in Calm   1.6 mph 63 % 0.0 in
22:32 20.1 °F 13.1 °F 1018.8 in Calm     64 % 0.0 in
22:37 19.9 °F 13.1 °F 1018.8 in Calm   1.6 mph 65 % 0.0 in
22:42 19.7 °F 13.2 °F 1018.8 in Calm   1.6 mph 66 % 0.0 in
22:52 19.4 °F 13.1 °F 1019.2 in Calm   1.6 mph 67 % 0.0 in
22:57 19.3 °F 13.2 °F 1019.2 in Calm   1.6 mph 68 % 0.0 in
23:02 19.2 °F 13.1 °F 1019.2 in Calm   1.6 mph 68 % 0.0 in
23:12 18.8 °F 13.0 °F 1019.2 in Calm     69 % 0.0 in
23:17 18.6 °F 13.0 °F 1019.2 in Calm     70 % 0.0 in
23:22 18.4 °F 13.0 °F 1019.2 in Calm     71 % 0.0 in
23:27 18.3 °F 13.0 °F 1019.2 in Calm     71 % 0.0 in
23:37 17.9 °F 12.8 °F 1019.2 in Calm     72 % 0.0 in
23:42 17.8 °F 12.7 °F 1019.2 in Calm     72 % 0.0 in
23:52 17.7 °F 12.6 °F 1018.8 in Calm   1.6 mph 72 % 0.0 in
23:57 17.7 °F 12.8 °F 1018.8 in Calm   1.6 mph 73 % 0.0 in
Meteo18
Compliments of Weather Underground - 4 mb

Script developed by  Jim McMurry - jmcmurry@mwt.net Adapted for the template by  Wim van der Kuil - Leuven-Template.eu

You find our weather info also at:

European Weather Network

Weather Underground

Equipment we use:

Weather-station
Davis Vue

Weather-program
Meteobridge

Weather-server
Raspberry PI 2 B+

Provider
1 and 1

Davis Vue

Meteobridge

Raspberry PI 2 B+

1 and 1